createdAt,value
2018-03-31T00:01:49.710Z,6.76
2018-03-31T00:04:17.548Z,6.71
2018-03-31T00:06:45.344Z,6.70
2018-03-31T00:09:13.217Z,6.64
2018-03-31T00:11:40.999Z,6.65
2018-03-31T00:14:08.814Z,6.61
2018-03-31T00:16:36.652Z,6.59
2018-03-31T00:19:04.548Z,6.58
2018-03-31T00:21:32.338Z,6.60
2018-03-31T00:24:00.205Z,6.59
2018-03-31T00:26:28.007Z,6.52
2018-03-31T00:28:57.477Z,6.56
2018-03-31T00:31:25.240Z,6.60
2018-03-31T00:33:53.106Z,6.62
2018-03-31T00:36:20.890Z,6.66
2018-03-31T00:38:48.715Z,6.65
2018-03-31T00:41:16.580Z,6.69
2018-03-31T00:43:44.354Z,6.74
2018-03-31T00:46:12.142Z,6.78
2018-03-31T00:48:39.940Z,6.82
2018-03-31T00:51:07.739Z,6.80
2018-03-31T00:53:35.525Z,6.86
2018-03-31T00:56:03.366Z,6.95
2018-03-31T00:58:31.129Z,6.94
2018-03-31T01:00:58.941Z,6.96
2018-03-31T01:03:26.803Z,7.00
2018-03-31T01:05:54.608Z,7.06
2018-03-31T01:08:22.458Z,7.05
2018-03-31T01:10:50.252Z,7.08
2018-03-31T01:13:18.048Z,7.14
2018-03-31T01:15:45.845Z,7.23
2018-03-31T01:18:13.664Z,7.30
2018-03-31T01:20:41.448Z,7.28
2018-03-31T01:23:09.231Z,7.39
2018-03-31T01:25:37.097Z,7.35
2018-03-31T01:28:04.877Z,7.41
2018-03-31T01:30:32.660Z,7.45
2018-03-31T01:33:00.442Z,7.41
2018-03-31T01:35:28.214Z,7.37
2018-03-31T01:37:58.207Z,7.38
2018-03-31T01:40:26.370Z,7.33
2018-03-31T01:42:54.171Z,7.35
2018-03-31T01:45:21.956Z,7.41
2018-03-31T01:47:49.754Z,7.43
2018-03-31T01:50:17.599Z,7.38
2018-03-31T01:52:45.636Z,7.38
2018-03-31T01:55:13.501Z,7.43
2018-03-31T01:57:41.287Z,7.43
2018-03-31T02:00:09.087Z,7.42
2018-03-31T02:02:37.044Z,7.39
2018-03-31T02:05:05.221Z,7.42
2018-03-31T02:07:33.056Z,7.37
2018-03-31T02:10:00.836Z,7.39
2018-03-31T02:12:28.750Z,7.42
2018-03-31T02:14:57.516Z,7.39
2018-03-31T02:17:25.325Z,7.44
2018-03-31T02:19:53.106Z,7.45
2018-03-31T02:22:20.958Z,7.49
2018-03-31T02:24:48.860Z,7.51
2018-03-31T02:27:16.643Z,7.48
2018-03-31T02:29:44.441Z,7.52
2018-03-31T02:32:12.225Z,7.53
2018-03-31T02:34:40.009Z,7.52
2018-03-31T02:37:07.788Z,7.48
2018-03-31T02:39:35.657Z,7.52
2018-03-31T02:42:03.547Z,7.53
2018-03-31T02:44:32.557Z,7.51
2018-03-31T02:47:00.353Z,7.54
2018-03-31T02:49:28.337Z,7.53
2018-03-31T02:51:56.165Z,7.48
2018-03-31T02:54:23.953Z,7.44
2018-03-31T02:56:51.750Z,7.29
2018-03-31T02:59:19.543Z,7.27
2018-03-31T03:01:47.326Z,7.28
2018-03-31T03:04:15.154Z,7.19
2018-03-31T03:06:42.930Z,7.14
2018-03-31T03:09:10.731Z,7.04
2018-03-31T03:11:38.549Z,7.02
2018-03-31T03:14:06.347Z,6.89
2018-03-31T03:16:34.122Z,6.87
2018-03-31T03:19:01.940Z,6.77
2018-03-31T03:21:29.739Z,6.72
2018-03-31T03:23:57.531Z,6.70
2018-03-31T03:26:25.344Z,6.69
2018-03-31T03:28:53.138Z,6.68
2018-03-31T03:31:20.958Z,6.62
2018-03-31T03:33:48.731Z,6.65
2018-03-31T03:36:16.618Z,6.65
2018-03-31T03:38:44.385Z,6.63
2018-03-31T03:41:12.400Z,6.61
2018-03-31T03:43:40.290Z,6.49
2018-03-31T03:46:08.575Z,6.41
2018-03-31T03:48:36.355Z,6.29
2018-03-31T03:51:04.161Z,6.23
2018-03-31T03:53:31.936Z,6.12
2018-03-31T03:55:59.784Z,6.09
2018-03-31T03:58:27.562Z,6.09
2018-03-31T04:00:55.349Z,6.03
2018-03-31T04:03:23.126Z,5.91
2018-03-31T04:05:50.940Z,5.89
2018-03-31T04:08:18.723Z,5.88
2018-03-31T04:10:46.609Z,5.85
2018-03-31T04:13:14.384Z,5.82
2018-03-31T04:15:42.216Z,5.77
2018-03-31T04:18:10.227Z,5.71
2018-03-31T04:20:38.126Z,5.66
2018-03-31T04:23:06.007Z,5.63
2018-03-31T04:25:33.926Z,5.63
2018-03-31T04:28:01.708Z,5.68
2018-03-31T04:30:29.510Z,5.68
2018-03-31T04:32:57.285Z,5.77
2018-03-31T04:35:25.104Z,5.86
2018-03-31T04:37:52.921Z,5.87
2018-03-31T04:40:20.702Z,5.89
2018-03-31T04:42:48.493Z,5.94
2018-03-31T04:45:16.286Z,5.95
2018-03-31T04:47:44.061Z,5.93
2018-03-31T04:50:11.914Z,5.87
2018-03-31T04:52:39.728Z,5.93
2018-03-31T04:55:07.518Z,5.80
2018-03-31T04:57:35.308Z,5.83
2018-03-31T05:00:03.084Z,5.84
2018-03-31T05:02:30.895Z,5.81
2018-03-31T05:04:58.667Z,5.91
2018-03-31T05:07:26.471Z,5.94
2018-03-31T05:09:54.262Z,5.93
2018-03-31T05:12:22.074Z,5.91
2018-03-31T05:14:49.853Z,5.95
2018-03-31T05:17:17.652Z,5.98
2018-03-31T05:19:45.424Z,5.93
2018-03-31T05:22:13.247Z,5.95
2018-03-31T05:24:41.138Z,5.96
2018-03-31T05:27:08.943Z,6.07
2018-03-31T05:29:36.714Z,6.04
2018-03-31T05:32:04.542Z,6.11
2018-03-31T05:34:32.316Z,6.11
2018-03-31T05:37:00.114Z,6.11
2018-03-31T05:39:27.879Z,6.17
2018-03-31T05:41:55.740Z,6.22
2018-03-31T05:44:23.643Z,6.27
2018-03-31T05:46:51.453Z,6.25
2018-03-31T05:49:19.224Z,6.30
2018-03-31T05:51:47.001Z,6.29
2018-03-31T05:54:14.852Z,6.30
2018-03-31T05:56:42.631Z,6.35
2018-03-31T05:59:10.507Z,6.40
2018-03-31T06:01:38.474Z,6.44
2018-03-31T06:04:06.262Z,6.57
2018-03-31T06:06:34.104Z,6.59
2018-03-31T06:09:02.048Z,6.72
2018-03-31T06:11:29.820Z,6.71
2018-03-31T06:13:57.667Z,6.81
2018-03-31T06:16:25.431Z,6.87
2018-03-31T06:18:53.224Z,7.00
2018-03-31T06:21:21.019Z,6.96
2018-03-31T06:23:48.800Z,7.05
2018-03-31T06:26:16.649Z,7.23
2018-03-31T06:28:44.436Z,7.12
2018-03-31T06:31:12.228Z,7.14
2018-03-31T06:33:40.278Z,7.19
2018-03-31T06:36:08.076Z,7.36
2018-03-31T06:38:35.876Z,7.45
2018-03-31T06:41:03.683Z,7.35
2018-03-31T06:43:31.482Z,7.35
2018-03-31T06:45:59.259Z,7.51
2018-03-31T06:48:27.072Z,7.64
2018-03-31T06:50:54.856Z,7.64
2018-03-31T06:53:22.639Z,7.66
2018-03-31T06:55:50.494Z,7.80
2018-03-31T06:58:18.340Z,7.77
2018-03-31T07:00:46.130Z,7.93
2018-03-31T07:03:13.921Z,7.98
2018-03-31T07:05:41.714Z,7.99
2018-03-31T07:08:09.661Z,7.91
2018-03-31T07:10:37.487Z,7.92
2018-03-31T07:13:05.311Z,8.01
2018-03-31T07:15:33.195Z,8.08
2018-03-31T07:18:01.140Z,8.24
2018-03-31T07:20:29.016Z,8.47
2018-03-31T07:22:57.130Z,8.65
2018-03-31T07:25:24.972Z,8.74
2018-03-31T07:27:52.763Z,8.71
2018-03-31T07:30:20.620Z,8.76
2018-03-31T07:32:48.411Z,8.76
2018-03-31T07:35:16.192Z,8.69
2018-03-31T07:37:44.055Z,8.64
2018-03-31T07:40:11.891Z,8.66
2018-03-31T07:45:06.877Z,8.66
2018-03-31T07:47:34.649Z,8.67
2018-03-31T07:50:02.638Z,8.75
2018-03-31T07:52:30.411Z,8.82
2018-03-31T07:54:58.202Z,8.92
2018-03-31T07:57:26.948Z,8.92
2018-03-31T07:59:54.736Z,8.94
2018-03-31T08:02:22.536Z,9.20
2018-03-31T08:04:50.335Z,9.08
2018-03-31T08:07:18.373Z,8.94
2018-03-31T08:09:46.261Z,9.10
2018-03-31T08:12:14.057Z,9.00
2018-03-31T08:14:41.844Z,9.16
2018-03-31T08:17:09.688Z,9.32
2018-03-31T08:19:37.975Z,9.26
2018-03-31T08:22:05.801Z,9.31
2018-03-31T08:24:33.591Z,9.72
2018-03-31T08:27:01.371Z,9.80
2018-03-31T08:29:29.177Z,9.98
2018-03-31T08:31:56.959Z,9.96
2018-03-31T08:34:24.842Z,10.17
2018-03-31T08:36:52.634Z,10.27
2018-03-31T08:39:20.440Z,10.43
2018-03-31T08:41:48.262Z,10.47
2018-03-31T08:44:16.155Z,10.31
2018-03-31T08:46:43.948Z,10.52
2018-03-31T08:49:11.792Z,10.54
2018-03-31T08:51:39.622Z,10.60
2018-03-31T08:54:07.428Z,10.55
2018-03-31T08:56:35.234Z,10.57
2018-03-31T08:59:03.040Z,10.53
2018-03-31T09:01:30.882Z,10.86
2018-03-31T09:03:58.824Z,11.16
2018-03-31T09:06:26.597Z,11.56
2018-03-31T09:08:54.444Z,11.53
2018-03-31T09:11:22.229Z,11.84
2018-03-31T09:13:50.057Z,12.16
2018-03-31T09:16:17.866Z,12.20
2018-03-31T09:18:45.661Z,12.37
2018-03-31T09:21:13.489Z,12.71
2018-03-31T09:23:41.298Z,12.37
2018-03-31T09:26:09.163Z,12.02
2018-03-31T09:28:37.295Z,12.08
2018-03-31T09:31:05.472Z,11.76
2018-03-31T09:33:33.679Z,11.84
2018-03-31T09:36:01.770Z,11.75
2018-03-31T09:38:29.728Z,11.68
2018-03-31T09:40:57.575Z,11.64
2018-03-31T09:43:25.871Z,11.52
2018-03-31T09:45:53.678Z,11.54
2018-03-31T09:48:21.501Z,11.50
2018-03-31T09:50:49.313Z,11.56
2018-03-31T09:53:17.116Z,11.33
2018-03-31T09:55:44.904Z,11.21
2018-03-31T09:58:12.679Z,10.99
2018-03-31T10:00:40.533Z,10.94
2018-03-31T10:03:08.378Z,10.78
2018-03-31T10:05:36.187Z,10.57
2018-03-31T10:08:03.959Z,10.86
2018-03-31T10:10:31.769Z,11.02
2018-03-31T10:12:59.544Z,11.15
2018-03-31T10:15:27.340Z,11.41
2018-03-31T10:17:55.176Z,11.53
2018-03-31T10:20:23.068Z,11.86
2018-03-31T10:22:50.855Z,11.69
2018-03-31T10:25:18.651Z,11.74
2018-03-31T10:27:46.416Z,11.78
2018-03-31T10:30:14.269Z,11.93
2018-03-31T10:32:42.153Z,11.99
2018-03-31T10:35:09.955Z,11.83
2018-03-31T10:37:37.762Z,11.59
2018-03-31T10:40:05.556Z,11.51
2018-03-31T10:42:33.392Z,11.47
2018-03-31T10:45:01.155Z,11.33
2018-03-31T10:47:28.937Z,11.42
2018-03-31T10:49:56.730Z,11.42
2018-03-31T10:52:24.510Z,11.49
2018-03-31T10:54:52.377Z,11.49
2018-03-31T10:57:20.147Z,11.55
2018-03-31T10:59:49.668Z,11.60
2018-03-31T11:02:17.445Z,11.53
2018-03-31T11:04:45.345Z,11.36
2018-03-31T11:07:13.159Z,11.42
2018-03-31T11:09:40.972Z,11.49
2018-03-31T11:12:08.910Z,11.50
2018-03-31T11:14:36.695Z,11.46
2018-03-31T11:17:04.533Z,11.27
2018-03-31T11:19:32.385Z,11.35
2018-03-31T11:22:00.166Z,11.39
2018-03-31T11:24:27.968Z,11.10
2018-03-31T11:26:56.068Z,10.81
2018-03-31T11:29:23.920Z,10.74
2018-03-31T11:31:51.863Z,10.72
2018-03-31T11:34:20.025Z,10.55
2018-03-31T11:36:47.873Z,10.37
2018-03-31T11:39:15.796Z,10.38
2018-03-31T11:41:43.575Z,10.36
2018-03-31T11:44:11.400Z,10.23
2018-03-31T11:46:39.338Z,10.23
2018-03-31T11:49:07.242Z,10.08
2018-03-31T11:51:35.048Z,10.07
2018-03-31T11:54:02.838Z,9.90
2018-03-31T11:56:30.723Z,9.91
2018-03-31T11:58:58.514Z,9.74
2018-03-31T12:01:26.328Z,9.69
2018-03-31T12:03:54.185Z,9.71
2018-03-31T12:06:22.036Z,9.71
2018-03-31T12:08:49.953Z,9.79
2018-03-31T12:11:17.717Z,9.72
2018-03-31T12:13:45.574Z,9.62
2018-03-31T12:16:13.366Z,9.63
2018-03-31T12:18:41.177Z,9.56
2018-03-31T12:21:08.955Z,9.46
2018-03-31T12:23:36.756Z,9.47
2018-03-31T12:26:04.765Z,9.36
2018-03-31T12:28:32.566Z,9.25
2018-03-31T12:31:00.576Z,9.23
2018-03-31T12:33:29.375Z,9.22
2018-03-31T12:35:57.180Z,9.27
2018-03-31T12:38:24.962Z,9.20
2018-03-31T12:40:52.756Z,9.19
2018-03-31T12:43:20.582Z,9.18
2018-03-31T12:45:48.413Z,9.17
2018-03-31T12:48:16.196Z,9.13
2018-03-31T12:50:43.988Z,9.08
2018-03-31T12:53:11.854Z,9.03
2018-03-31T12:55:39.638Z,9.13
2018-03-31T12:58:07.496Z,9.10
2018-03-31T13:00:35.348Z,9.08
2018-03-31T13:03:03.116Z,9.07
2018-03-31T13:05:30.940Z,9.13
2018-03-31T13:07:58.741Z,9.11
2018-03-31T13:10:27.383Z,8.85
2018-03-31T13:12:55.272Z,8.71
2018-03-31T13:15:23.066Z,8.72
2018-03-31T13:17:50.844Z,8.73
2018-03-31T13:20:18.639Z,8.71
2018-03-31T13:22:46.429Z,8.77
2018-03-31T13:25:14.319Z,8.56
2018-03-31T13:27:42.082Z,8.56
2018-03-31T13:30:09.936Z,8.56
2018-03-31T13:32:37.710Z,8.62
2018-03-31T13:35:05.639Z,8.62
2018-03-31T13:37:33.390Z,8.51
2018-03-31T13:40:01.212Z,8.49
2018-03-31T13:42:28.985Z,8.56
2018-03-31T13:44:56.801Z,8.56
2018-03-31T13:47:24.619Z,8.56
2018-03-31T13:49:52.427Z,8.60
2018-03-31T13:52:20.233Z,8.64
2018-03-31T13:54:48.016Z,8.62
2018-03-31T13:57:15.899Z,8.52
2018-03-31T13:59:43.766Z,8.45
2018-03-31T14:02:11.569Z,8.46
2018-03-31T14:04:39.390Z,8.38
2018-03-31T14:07:07.183Z,8.40
2018-03-31T14:09:34.973Z,8.42
2018-03-31T14:12:02.766Z,8.53
2018-03-31T14:14:30.557Z,8.61
2018-03-31T14:16:58.371Z,8.59
2018-03-31T14:19:26.148Z,8.65
2018-03-31T14:21:53.947Z,8.59
2018-03-31T14:24:21.721Z,8.59
2018-03-31T14:26:49.575Z,8.79
2018-03-31T14:29:17.431Z,8.72
2018-03-31T14:31:45.262Z,8.74
2018-03-31T14:34:13.117Z,8.79
2018-03-31T14:36:40.970Z,8.80
2018-03-31T14:39:09.018Z,8.83
2018-03-31T14:41:36.815Z,8.82
2018-03-31T14:44:04.602Z,8.77
2018-03-31T14:46:32.443Z,8.62
2018-03-31T14:49:00.280Z,8.43
2018-03-31T14:51:28.092Z,8.34
2018-03-31T14:53:55.869Z,8.24
2018-03-31T14:56:23.693Z,8.27
2018-03-31T14:58:51.476Z,8.28
2018-03-31T15:01:19.283Z,8.25
2018-03-31T15:03:47.039Z,8.25
2018-03-31T15:06:14.851Z,8.36
2018-03-31T15:08:48.933Z,8.29
2018-03-31T15:11:16.711Z,8.20
2018-03-31T15:13:44.533Z,8.10
2018-03-31T15:16:13.110Z,8.12
2018-03-31T15:18:40.845Z,8.20
2018-03-31T15:21:08.646Z,8.22
2018-03-31T15:23:36.419Z,8.19
2018-03-31T15:26:04.218Z,8.18
2018-03-31T15:28:32.156Z,8.03
2018-03-31T15:30:59.860Z,7.96
2018-03-31T15:33:28.524Z,7.91
2018-03-31T15:35:56.309Z,7.90
2018-03-31T15:38:24.103Z,7.84
2018-03-31T15:40:51.889Z,7.87
2018-03-31T15:43:19.686Z,7.80
2018-03-31T15:45:47.504Z,7.70
2018-03-31T15:48:15.357Z,7.70
2018-03-31T15:50:43.335Z,7.71
2018-03-31T15:53:11.194Z,7.68
2018-03-31T15:55:39.197Z,7.65
2018-03-31T15:58:07.046Z,7.61
2018-03-31T16:00:34.834Z,7.59
2018-03-31T16:03:02.633Z,7.59
2018-03-31T16:05:30.606Z,7.57
2018-03-31T16:07:58.674Z,7.51
2018-03-31T16:10:26.695Z,7.47
2018-03-31T16:12:54.455Z,7.50
2018-03-31T16:15:22.253Z,7.46
2018-03-31T16:17:50.031Z,7.32
2018-03-31T16:20:17.874Z,7.31
2018-03-31T16:22:45.705Z,7.29
2018-03-31T16:25:13.509Z,7.32
2018-03-31T16:27:41.354Z,7.30
2018-03-31T16:30:09.155Z,7.31
2018-03-31T16:32:36.929Z,7.19
2018-03-31T16:35:05.001Z,7.14
2018-03-31T16:37:32.790Z,7.11
2018-03-31T16:40:00.607Z,7.09
2018-03-31T16:42:28.372Z,7.02
2018-03-31T16:44:56.170Z,7.05
2018-03-31T16:47:24.069Z,7.05
2018-03-31T16:49:51.860Z,7.02
2018-03-31T16:52:19.676Z,7.02
2018-03-31T16:54:47.488Z,6.92
2018-03-31T16:57:15.282Z,6.93
2018-03-31T16:59:43.080Z,6.82
2018-03-31T17:02:10.844Z,6.80
2018-03-31T17:04:38.649Z,6.80
2018-03-31T17:07:06.423Z,6.83
2018-03-31T17:09:34.270Z,6.75
2018-03-31T17:12:02.044Z,6.82
2018-03-31T17:14:29.845Z,6.73
2018-03-31T17:16:57.623Z,6.74
2018-03-31T17:19:25.409Z,6.78
2018-03-31T17:21:53.311Z,6.65
2018-03-31T17:24:21.152Z,6.72
2018-03-31T17:26:48.948Z,6.68
2018-03-31T17:29:16.745Z,6.61
2018-03-31T17:31:44.537Z,6.66
2018-03-31T17:34:12.307Z,6.59
2018-03-31T17:36:40.364Z,6.56
2018-03-31T17:39:08.105Z,6.58
2018-03-31T17:41:35.996Z,6.44
2018-03-31T17:44:03.801Z,6.49
2018-03-31T17:46:31.645Z,6.46
2018-03-31T17:48:59.524Z,6.46
2018-03-31T17:51:27.304Z,6.41
2018-03-31T17:53:55.089Z,6.33
2018-03-31T17:56:22.884Z,6.32
2018-03-31T17:58:50.675Z,6.29
2018-03-31T18:01:18.486Z,6.23
2018-03-31T18:03:46.314Z,6.18
2018-03-31T18:06:14.198Z,6.21
2018-03-31T18:08:42.261Z,6.20
2018-03-31T18:11:10.157Z,6.15
2018-03-31T18:13:38.013Z,6.24
2018-03-31T18:16:05.813Z,6.23
2018-03-31T18:18:33.598Z,6.23
2018-03-31T18:21:01.517Z,6.18
2018-03-31T18:23:29.361Z,6.14
2018-03-31T18:25:57.128Z,6.14
2018-03-31T18:28:25.007Z,6.10
2018-03-31T18:30:52.885Z,6.09
2018-03-31T18:33:20.705Z,6.07
2018-03-31T18:35:48.471Z,5.91
2018-03-31T18:38:16.270Z,5.96
2018-03-31T18:40:44.062Z,5.82
2018-03-31T18:43:11.853Z,5.82
2018-03-31T18:45:39.648Z,5.84
2018-03-31T18:48:07.436Z,5.90
2018-03-31T18:50:35.325Z,5.98
2018-03-31T18:53:03.117Z,5.93
2018-03-31T18:55:30.974Z,5.88
2018-03-31T18:57:58.873Z,5.86
2018-03-31T19:00:26.643Z,5.79
2018-03-31T19:02:54.587Z,5.76
2018-03-31T19:05:22.356Z,5.66
2018-03-31T19:07:50.166Z,5.61
2018-03-31T19:10:18.044Z,5.61
2018-03-31T19:12:45.839Z,5.52
2018-03-31T19:15:13.704Z,5.58
2018-03-31T19:17:41.495Z,5.44
2018-03-31T19:20:09.269Z,5.43
2018-03-31T19:22:37.072Z,5.37
2018-03-31T19:28:04.855Z,5.28
2018-03-31T19:30:38.356Z,5.19
2018-03-31T19:33:06.138Z,5.20
2018-03-31T19:35:39.438Z,5.06
2018-03-31T19:38:07.321Z,5.07
2018-03-31T19:40:35.108Z,5.06
2018-03-31T19:43:02.994Z,4.92
2018-03-31T19:45:30.803Z,4.92
2018-03-31T19:47:58.638Z,4.85
2018-03-31T19:50:26.505Z,4.87
2018-03-31T19:52:54.302Z,4.90
2018-03-31T19:55:22.183Z,4.80
2018-03-31T19:57:50.939Z,4.72
2018-03-31T20:00:18.838Z,4.68
2018-03-31T20:02:46.662Z,4.63
2018-03-31T20:05:14.463Z,4.60
2018-03-31T20:07:42.274Z,4.56
2018-03-31T20:10:10.070Z,4.60
2018-03-31T20:12:37.847Z,4.55
2018-03-31T20:15:05.732Z,4.54
2018-03-31T20:17:33.506Z,4.37
2018-03-31T20:20:01.396Z,4.32
2018-03-31T20:22:29.162Z,4.30
2018-03-31T20:24:57.018Z,4.18
2018-03-31T20:27:24.799Z,4.22
2018-03-31T20:29:52.650Z,4.19
2018-03-31T20:32:20.498Z,4.16
2018-03-31T20:34:48.272Z,4.15
2018-03-31T20:37:16.092Z,4.10
2018-03-31T20:39:43.900Z,4.09
2018-03-31T20:42:11.740Z,4.05
2018-03-31T20:44:39.558Z,4.04
2018-03-31T20:47:07.362Z,4.03
2018-03-31T20:49:35.327Z,4.00
2018-03-31T20:52:03.210Z,3.98
2018-03-31T20:54:30.987Z,4.01
2018-03-31T20:56:58.804Z,4.02
2018-03-31T20:59:26.594Z,4.06
2018-03-31T21:01:54.417Z,4.00
2018-03-31T21:04:22.438Z,3.92
2018-03-31T21:06:50.225Z,3.93
2018-03-31T21:09:19.169Z,3.91
2018-03-31T21:11:46.957Z,3.87
2018-03-31T21:14:14.842Z,3.75
2018-03-31T21:16:42.732Z,3.80
2018-03-31T21:19:10.524Z,3.79
2018-03-31T21:21:38.313Z,3.75
2018-03-31T21:24:06.171Z,3.73
2018-03-31T21:26:33.966Z,3.75
2018-03-31T21:29:01.827Z,3.80
2018-03-31T21:31:29.632Z,3.75
2018-03-31T21:33:59.279Z,3.77
2018-03-31T21:36:27.100Z,3.75
2018-03-31T21:38:55.006Z,3.68
2018-03-31T21:41:22.802Z,3.72
2018-03-31T21:43:50.657Z,3.74
2018-03-31T21:46:18.438Z,3.74
2018-03-31T21:48:46.230Z,3.74
2018-03-31T21:51:14.071Z,3.82
2018-03-31T21:53:41.943Z,3.86
2018-03-31T21:56:09.762Z,3.79
2018-03-31T21:58:37.565Z,3.75
2018-03-31T22:01:05.357Z,3.71
2018-03-31T22:03:33.179Z,3.69
2018-03-31T22:06:01.022Z,3.65
2018-03-31T22:08:28.848Z,3.64
2018-03-31T22:10:56.629Z,3.66
2018-03-31T22:13:29.924Z,3.60
2018-03-31T22:15:57.717Z,3.55
2018-03-31T22:18:25.509Z,3.52
2018-03-31T22:20:53.294Z,3.56
2018-03-31T22:23:21.094Z,3.48
2018-03-31T22:25:49.123Z,3.36
2018-03-31T22:28:18.058Z,3.37
2018-03-31T22:30:45.847Z,3.34
2018-03-31T22:33:13.641Z,3.33
2018-03-31T22:35:41.530Z,3.35
2018-03-31T22:38:09.346Z,3.37
2018-03-31T22:40:37.130Z,3.37
2018-03-31T22:43:04.927Z,3.33
2018-03-31T22:45:32.791Z,3.37
2018-03-31T22:48:00.576Z,3.35
2018-03-31T22:50:28.419Z,3.35
2018-03-31T22:52:56.177Z,3.31
2018-03-31T22:55:24.035Z,3.33
2018-03-31T22:57:51.869Z,3.30
2018-03-31T23:00:19.784Z,3.28
2018-03-31T23:02:47.583Z,3.36
2018-03-31T23:05:15.479Z,3.39
2018-03-31T23:07:43.321Z,3.37
2018-03-31T23:10:11.816Z,3.42
2018-03-31T23:12:40.089Z,3.35
2018-03-31T23:15:07.887Z,3.31
2018-03-31T23:17:35.707Z,3.36
2018-03-31T23:20:03.592Z,3.35
2018-03-31T23:22:31.379Z,3.26
2018-03-31T23:24:59.228Z,3.20
2018-03-31T23:27:27.037Z,3.22
2018-03-31T23:29:54.848Z,3.11
2018-03-31T23:32:22.635Z,3.15
2018-03-31T23:34:50.457Z,3.11
2018-03-31T23:37:18.242Z,3.11
2018-03-31T23:39:46.117Z,3.05
2018-03-31T23:42:13.894Z,3.04
2018-03-31T23:44:41.727Z,3.00
2018-03-31T23:47:09.565Z,2.95
2018-03-31T23:49:37.373Z,2.99
2018-03-31T23:52:05.200Z,3.00
2018-03-31T23:54:33.004Z,3.08
2018-03-31T23:57:00.789Z,3.03
2018-03-31T23:59:28.564Z,3.05
